sensor_id;sensor_type;location;lat;lon;timestamp;P1;durP1;ratioP1;P2;durP2;ratioP2
11960;SDS011;6040;49.358;11.140;2023-04-24T00:00:31;2.00;;;1.60;;
11960;SDS011;6040;49.358;11.140;2023-04-24T00:02:58;2.60;;;1.70;;
11960;SDS011;6040;49.358;11.140;2023-04-24T00:05:25;2.73;;;1.53;;
11960;SDS011;6040;49.358;11.140;2023-04-24T00:07:53;2.37;;;1.70;;
11960;SDS011;6040;49.358;11.140;2023-04-24T00:10:20;1.83;;;1.50;;
11960;SDS011;6040;49.358;11.140;2023-04-24T00:12:47;3.83;;;1.50;;
11960;SDS011;6040;49.358;11.140;2023-04-24T00:15:14;3.00;;;1.40;;
11960;SDS011;6040;49.358;11.140;2023-04-24T00:17:41;2.47;;;1.77;;
11960;SDS011;6040;49.358;11.140;2023-04-24T00:20:08;1.60;;;1.50;;
11960;SDS011;6040;49.358;11.140;2023-04-24T00:22:36;5.73;;;1.80;;
11960;SDS011;6040;49.358;11.140;2023-04-24T00:25:04;1.87;;;1.77;;
11960;SDS011;6040;49.358;11.140;2023-04-24T00:27:31;2.63;;;1.77;;
11960;SDS011;6040;49.358;11.140;2023-04-24T00:30:00;2.57;;;1.57;;
11960;SDS011;6040;49.358;11.140;2023-04-24T00:32:27;3.57;;;1.80;;
11960;SDS011;6040;49.358;11.140;2023-04-24T00:34:53;2.10;;;1.73;;
11960;SDS011;6040;49.358;11.140;2023-04-24T00:37:20;2.90;;;1.70;;
11960;SDS011;6040;49.358;11.140;2023-04-24T00:39:47;4.90;;;1.93;;
11960;SDS011;6040;49.358;11.140;2023-04-24T00:42:15;2.23;;;1.50;;
11960;SDS011;6040;49.358;11.140;2023-04-24T00:44:42;1.87;;;1.67;;
11960;SDS011;6040;49.358;11.140;2023-04-24T00:47:09;2.10;;;1.73;;
11960;SDS011;6040;49.358;11.140;2023-04-24T00:49:37;3.60;;;1.60;;
11960;SDS011;6040;49.358;11.140;2023-04-24T00:52:04;2.77;;;1.70;;
11960;SDS011;6040;49.358;11.140;2023-04-24T00:54:33;1.77;;;1.57;;
11960;SDS011;6040;49.358;11.140;2023-04-24T00:57:00;2.07;;;1.77;;
11960;SDS011;6040;49.358;11.140;2023-04-24T00:59:29;3.37;;;1.93;;
11960;SDS011;6040;49.358;11.140;2023-04-24T01:01:56;1.73;;;1.60;;
11960;SDS011;6040;49.358;11.140;2023-04-24T01:04:24;1.60;;;1.50;;
11960;SDS011;6040;49.358;11.140;2023-04-24T01:06:52;1.80;;;1.60;;
11960;SDS011;6040;49.358;11.140;2023-04-24T01:09:20;2.00;;;1.80;;
11960;SDS011;6040;49.358;11.140;2023-04-24T01:11:49;2.03;;;1.70;;
11960;SDS011;6040;49.358;11.140;2023-04-24T01:14:16;1.93;;;1.70;;
11960;SDS011;6040;49.358;11.140;2023-04-24T01:16:44;1.70;;;1.60;;
11960;SDS011;6040;49.358;11.140;2023-04-24T01:19:11;1.90;;;1.60;;
11960;SDS011;6040;49.358;11.140;2023-04-24T01:21:40;4.53;;;1.70;;
11960;SDS011;6040;49.358;11.140;2023-04-24T01:24:10;2.77;;;1.97;;
11960;SDS011;6040;49.358;11.140;2023-04-24T01:26:37;2.13;;;1.63;;
11960;SDS011;6040;49.358;11.140;2023-04-24T01:29:04;1.70;;;1.60;;
11960;SDS011;6040;49.358;11.140;2023-04-24T01:31:31;2.67;;;1.90;;
11960;SDS011;6040;49.358;11.140;2023-04-24T01:33:59;2.03;;;1.83;;
11960;SDS011;6040;49.358;11.140;2023-04-24T01:36:26;1.60;;;1.50;;
11960;SDS011;6040;49.358;11.140;2023-04-24T01:38:55;2.67;;;1.73;;
11960;SDS011;6040;49.358;11.140;2023-04-24T01:41:23;3.00;;;1.70;;
11960;SDS011;6040;49.358;11.140;2023-04-24T01:43:50;2.43;;;1.60;;
11960;SDS011;6040;49.358;11.140;2023-04-24T01:46:17;1.70;;;1.60;;
11960;SDS011;6040;49.358;11.140;2023-04-24T01:48:44;3.93;;;1.80;;
11960;SDS011;6040;49.358;11.140;2023-04-24T01:51:11;1.83;;;1.50;;
11960;SDS011;6040;49.358;11.140;2023-04-24T01:53:38;2.57;;;1.77;;
11960;SDS011;6040;49.358;11.140;2023-04-24T01:56:05;2.40;;;2.00;;
11960;SDS011;6040;49.358;11.140;2023-04-24T01:58:34;2.87;;;1.80;;
11960;SDS011;6040;49.358;11.140;2023-04-24T02:01:01;1.70;;;1.60;;
11960;SDS011;6040;49.358;11.140;2023-04-24T02:03:28;1.80;;;1.60;;
11960;SDS011;6040;49.358;11.140;2023-04-24T02:05:55;2.13;;;1.77;;
11960;SDS011;6040;49.358;11.140;2023-04-24T02:08:22;2.30;;;1.60;;
11960;SDS011;6040;49.358;11.140;2023-04-24T02:10:49;1.87;;;1.63;;
11960;SDS011;6040;49.358;11.140;2023-04-24T02:13:15;2.33;;;1.83;;
11960;SDS011;6040;49.358;11.140;2023-04-24T02:15:43;2.70;;;1.70;;
11960;SDS011;6040;49.358;11.140;2023-04-24T02:18:10;1.87;;;1.70;;
11960;SDS011;6040;49.358;11.140;2023-04-24T02:20:37;1.90;;;1.80;;
11960;SDS011;6040;49.358;11.140;2023-04-24T02:23:04;2.10;;;1.90;;
11960;SDS011;6040;49.358;11.140;2023-04-24T02:25:31;4.40;;;1.90;;
11960;SDS011;6040;49.358;11.140;2023-04-24T02:27:59;1.77;;;1.60;;
11960;SDS011;6040;49.358;11.140;2023-04-24T02:30:25;1.60;;;1.50;;
11960;SDS011;6040;49.358;11.140;2023-04-24T02:32:54;2.17;;;1.47;;
11960;SDS011;6040;49.358;11.140;2023-04-24T02:35:21;1.67;;;1.57;;
11960;SDS011;6040;49.358;11.140;2023-04-24T02:37:48;1.63;;;1.53;;
11960;SDS011;6040;49.358;11.140;2023-04-24T02:40:14;1.70;;;1.60;;
11960;SDS011;6040;49.358;11.140;2023-04-24T02:42:41;1.73;;;1.63;;
11960;SDS011;6040;49.358;11.140;2023-04-24T02:45:08;2.47;;;1.67;;
11960;SDS011;6040;49.358;11.140;2023-04-24T02:47:36;2.67;;;1.80;;
11960;SDS011;6040;49.358;11.140;2023-04-24T02:50:05;2.13;;;1.83;;
11960;SDS011;6040;49.358;11.140;2023-04-24T02:52:33;2.20;;;1.77;;
11960;SDS011;6040;49.358;11.140;2023-04-24T02:54:59;2.37;;;2.17;;
11960;SDS011;6040;49.358;11.140;2023-04-24T02:57:26;3.23;;;1.80;;
11960;SDS011;6040;49.358;11.140;2023-04-24T02:59:53;2.03;;;1.83;;
11960;SDS011;6040;49.358;11.140;2023-04-24T03:02:20;2.80;;;1.80;;
11960;SDS011;6040;49.358;11.140;2023-04-24T03:04:47;2.50;;;2.00;;
11960;SDS011;6040;49.358;11.140;2023-04-24T03:07:15;2.23;;;2.03;;
11960;SDS011;6040;49.358;11.140;2023-04-24T03:09:41;2.13;;;1.70;;
11960;SDS011;6040;49.358;11.140;2023-04-24T03:12:08;2.10;;;1.90;;
11960;SDS011;6040;49.358;11.140;2023-04-24T03:14:35;2.23;;;2.00;;
11960;SDS011;6040;49.358;11.140;2023-04-24T03:17:02;2.30;;;2.10;;
11960;SDS011;6040;49.358;11.140;2023-04-24T03:19:29;2.20;;;2.00;;
11960;SDS011;6040;49.358;11.140;2023-04-24T03:21:56;3.17;;;2.13;;
11960;SDS011;6040;49.358;11.140;2023-04-24T03:24:24;2.37;;;1.90;;
11960;SDS011;6040;49.358;11.140;2023-04-24T03:26:52;2.17;;;1.97;;
11960;SDS011;6040;49.358;11.140;2023-04-24T03:29:21;3.60;;;2.03;;
11960;SDS011;6040;49.358;11.140;2023-04-24T03:31:47;2.63;;;2.30;;
11960;SDS011;6040;49.358;11.140;2023-04-24T03:34:14;3.90;;;1.90;;
11960;SDS011;6040;49.358;11.140;2023-04-24T03:36:41;2.20;;;2.00;;
11960;SDS011;6040;49.358;11.140;2023-04-24T03:39:08;3.03;;;2.20;;
11960;SDS011;6040;49.358;11.140;2023-04-24T03:41:36;2.13;;;1.90;;
11960;SDS011;6040;49.358;11.140;2023-04-24T03:44:03;2.00;;;1.90;;
11960;SDS011;6040;49.358;11.140;2023-04-24T03:46:30;2.20;;;2.00;;
11960;SDS011;6040;49.358;11.140;2023-04-24T03:48:56;2.30;;;1.83;;
11960;SDS011;6040;49.358;11.140;2023-04-24T03:51:23;3.03;;;2.13;;
11960;SDS011;6040;49.358;11.140;2023-04-24T03:53:50;2.23;;;2.03;;
11960;SDS011;6040;49.358;11.140;2023-04-24T03:56:17;7.70;;;2.13;;
11960;SDS011;6040;49.358;11.140;2023-04-24T03:58:45;3.73;;;2.17;;
11960;SDS011;6040;49.358;11.140;2023-04-24T04:01:12;3.33;;;2.00;;
11960;SDS011;6040;49.358;11.140;2023-04-24T04:03:40;3.67;;;2.20;;
11960;SDS011;6040;49.358;11.140;2023-04-24T04:06:07;2.27;;;2.07;;
11960;SDS011;6040;49.358;11.140;2023-04-24T04:08:36;4.27;;;2.03;;
11960;SDS011;6040;49.358;11.140;2023-04-24T04:11:02;2.23;;;1.90;;
11960;SDS011;6040;49.358;11.140;2023-04-24T04:13:29;5.20;;;2.10;;
11960;SDS011;6040;49.358;11.140;2023-04-24T04:15:57;3.10;;;2.10;;
11960;SDS011;6040;49.358;11.140;2023-04-24T04:18:24;4.50;;;2.23;;
11960;SDS011;6040;49.358;11.140;2023-04-24T04:20:51;3.13;;;2.30;;
11960;SDS011;6040;49.358;11.140;2023-04-24T04:23:18;2.37;;;2.10;;
11960;SDS011;6040;49.358;11.140;2023-04-24T04:25:44;2.10;;;1.90;;
11960;SDS011;6040;49.358;11.140;2023-04-24T04:28:12;2.67;;;2.00;;
11960;SDS011;6040;49.358;11.140;2023-04-24T04:30:38;4.67;;;2.20;;
11960;SDS011;6040;49.358;11.140;2023-04-24T04:33:07;2.63;;;2.13;;
11960;SDS011;6040;49.358;11.140;2023-04-24T04:35:35;3.63;;;2.33;;
11960;SDS011;6040;49.358;11.140;2023-04-24T04:38:02;3.67;;;2.27;;
11960;SDS011;6040;49.358;11.140;2023-04-24T04:40:29;2.40;;;2.10;;
11960;SDS011;6040;49.358;11.140;2023-04-24T04:42:56;4.80;;;2.50;;
11960;SDS011;6040;49.358;11.140;2023-04-24T04:45:23;3.33;;;2.10;;
11960;SDS011;6040;49.358;11.140;2023-04-24T04:47:51;2.30;;;2.10;;
11960;SDS011;6040;49.358;11.140;2023-04-24T04:50:21;2.67;;;2.30;;
11960;SDS011;6040;49.358;11.140;2023-04-24T04:52:48;2.93;;;2.50;;
11960;SDS011;6040;49.358;11.140;2023-04-24T04:55:15;3.43;;;2.37;;
11960;SDS011;6040;49.358;11.140;2023-04-24T04:57:42;3.37;;;2.70;;
11960;SDS011;6040;49.358;11.140;2023-04-24T05:00:09;2.97;;;2.40;;
11960;SDS011;6040;49.358;11.140;2023-04-24T05:02:37;3.53;;;2.03;;
11960;SDS011;6040;49.358;11.140;2023-04-24T05:05:04;2.30;;;2.10;;
11960;SDS011;6040;49.358;11.140;2023-04-24T05:07:33;2.47;;;2.17;;
11960;SDS011;6040;49.358;11.140;2023-04-24T05:09:59;2.77;;;2.40;;
11960;SDS011;6040;49.358;11.140;2023-04-24T05:12:26;2.50;;;2.30;;
11960;SDS011;6040;49.358;11.140;2023-04-24T05:14:53;3.80;;;2.23;;
11960;SDS011;6040;49.358;11.140;2023-04-24T05:17:20;2.60;;;2.40;;
11960;SDS011;6040;49.358;11.140;2023-04-24T05:19:47;2.97;;;2.40;;
11960;SDS011;6040;49.358;11.140;2023-04-24T05:22:14;2.50;;;2.30;;
11960;SDS011;6040;49.358;11.140;2023-04-24T05:24:43;2.30;;;2.10;;
11960;SDS011;6040;49.358;11.140;2023-04-24T05:27:10;2.50;;;2.30;;
11960;SDS011;6040;49.358;11.140;2023-04-24T05:29:37;4.37;;;2.50;;
11960;SDS011;6040;49.358;11.140;2023-04-24T05:32:05;4.47;;;2.30;;
11960;SDS011;6040;49.358;11.140;2023-04-24T05:34:32;2.50;;;2.20;;
11960;SDS011;6040;49.358;11.140;2023-04-24T05:36:59;2.53;;;2.27;;
11960;SDS011;6040;49.358;11.140;2023-04-24T05:39:25;4.37;;;2.50;;
11960;SDS011;6040;49.358;11.140;2023-04-24T05:41:53;2.30;;;2.10;;
11960;SDS011;6040;49.358;11.140;2023-04-24T05:44:23;2.60;;;2.40;;
11960;SDS011;6040;49.358;11.140;2023-04-24T05:46:49;3.13;;;2.40;;
11960;SDS011;6040;49.358;11.140;2023-04-24T05:49:16;3.00;;;2.40;;
11960;SDS011;6040;49.358;11.140;2023-04-24T05:51:43;2.70;;;2.50;;
11960;SDS011;6040;49.358;11.140;2023-04-24T05:54:10;3.87;;;2.20;;
11960;SDS011;6040;49.358;11.140;2023-04-24T05:56:37;2.77;;;2.57;;
11960;SDS011;6040;49.358;11.140;2023-04-24T05:59:06;2.50;;;2.30;;
11960;SDS011;6040;49.358;11.140;2023-04-24T06:01:33;2.97;;;2.53;;
11960;SDS011;6040;49.358;11.140;2023-04-24T06:04:02;4.10;;;2.53;;
11960;SDS011;6040;49.358;11.140;2023-04-24T06:06:29;2.80;;;2.37;;
11960;SDS011;6040;49.358;11.140;2023-04-24T06:08:57;2.63;;;2.43;;
11960;SDS011;6040;49.358;11.140;2023-04-24T06:11:24;2.37;;;2.13;;
11960;SDS011;6040;49.358;11.140;2023-04-24T06:13:51;2.57;;;2.37;;
11960;SDS011;6040;49.358;11.140;2023-04-24T06:16:19;3.03;;;2.60;;
11960;SDS011;6040;49.358;11.140;2023-04-24T06:18:46;2.53;;;2.33;;
11960;SDS011;6040;49.358;11.140;2023-04-24T06:21:13;4.10;;;3.20;;
11960;SDS011;6040;49.358;11.140;2023-04-24T06:23:41;2.73;;;2.53;;
11960;SDS011;6040;49.358;11.140;2023-04-24T06:26:08;4.03;;;2.80;;
11960;SDS011;6040;49.358;11.140;2023-04-24T06:28:35;2.60;;;2.30;;
11960;SDS011;6040;49.358;11.140;2023-04-24T06:31:01;3.70;;;2.10;;
11960;SDS011;6040;49.358;11.140;2023-04-24T06:33:30;2.83;;;2.10;;
11960;SDS011;6040;49.358;11.140;2023-04-24T06:35:56;2.97;;;1.87;;
11960;SDS011;6040;49.358;11.140;2023-04-24T06:38:23;3.80;;;2.10;;
11960;SDS011;6040;49.358;11.140;2023-04-24T06:40:50;3.03;;;2.00;;
11960;SDS011;6040;49.358;11.140;2023-04-24T06:43:17;2.50;;;2.10;;
11960;SDS011;6040;49.358;11.140;2023-04-24T06:45:44;2.17;;;1.93;;
11960;SDS011;6040;49.358;11.140;2023-04-24T06:48:12;1.90;;;1.80;;
11960;SDS011;6040;49.358;11.140;2023-04-24T06:50:40;2.27;;;1.80;;
11960;SDS011;6040;49.358;11.140;2023-04-24T06:53:07;3.37;;;1.90;;
11960;SDS011;6040;49.358;11.140;2023-04-24T06:55:36;1.73;;;1.63;;
11960;SDS011;6040;49.358;11.140;2023-04-24T06:58:03;2.43;;;1.67;;
11960;SDS011;6040;49.358;11.140;2023-04-24T07:00:31;1.60;;;1.50;;
11960;SDS011;6040;49.358;11.140;2023-04-24T07:02:58;2.70;;;1.30;;
11960;SDS011;6040;49.358;11.140;2023-04-24T07:05:24;1.70;;;1.57;;
11960;SDS011;6040;49.358;11.140;2023-04-24T07:07:53;1.93;;;1.30;;
11960;SDS011;6040;49.358;11.140;2023-04-24T07:10:19;1.90;;;1.10;;
11960;SDS011;6040;49.358;11.140;2023-04-24T07:12:46;1.60;;;1.03;;
11960;SDS011;6040;49.358;11.140;2023-04-24T07:15:13;3.40;;;1.10;;
11960;SDS011;6040;49.358;11.140;2023-04-24T07:17:41;3.13;;;1.20;;
11960;SDS011;6040;49.358;11.140;2023-04-24T07:20:10;1.20;;;1.00;;
11960;SDS011;6040;49.358;11.140;2023-04-24T07:22:37;2.63;;;1.20;;
11960;SDS011;6040;49.358;11.140;2023-04-24T07:25:06;3.57;;;1.30;;
11960;SDS011;6040;49.358;11.140;2023-04-24T07:27:33;2.30;;;1.40;;
11960;SDS011;6040;49.358;11.140;2023-04-24T07:30:01;1.93;;;1.20;;
11960;SDS011;6040;49.358;11.140;2023-04-24T07:32:28;2.30;;;1.33;;
11960;SDS011;6040;49.358;11.140;2023-04-24T07:34:55;1.27;;;1.17;;
11960;SDS011;6040;49.358;11.140;2023-04-24T07:37:22;2.90;;;1.37;;
11960;SDS011;6040;49.358;11.140;2023-04-24T07:39:49;1.40;;;1.30;;
11960;SDS011;6040;49.358;11.140;2023-04-24T07:42:18;1.60;;;1.50;;
11960;SDS011;6040;49.358;11.140;2023-04-24T07:44:45;1.60;;;1.40;;
11960;SDS011;6040;49.358;11.140;2023-04-24T07:47:12;2.13;;;1.30;;
11960;SDS011;6040;49.358;11.140;2023-04-24T07:49:40;1.50;;;1.30;;
11960;SDS011;6040;49.358;11.140;2023-04-24T07:52:07;1.57;;;1.47;;
11960;SDS011;6040;49.358;11.140;2023-04-24T07:54:34;1.60;;;1.50;;
11960;SDS011;6040;49.358;11.140;2023-04-24T07:57:02;1.83;;;1.63;;
11960;SDS011;6040;49.358;11.140;2023-04-24T07:59:30;1.83;;;1.70;;
11960;SDS011;6040;49.358;11.140;2023-04-24T08:01:57;1.50;;;1.40;;
11960;SDS011;6040;49.358;11.140;2023-04-24T08:04:24;1.70;;;1.60;;
11960;SDS011;6040;49.358;11.140;2023-04-24T08:06:51;2.93;;;1.90;;
11960;SDS011;6040;49.358;11.140;2023-04-24T08:09:17;3.47;;;1.90;;
11960;SDS011;6040;49.358;11.140;2023-04-24T08:11:44;2.50;;;1.53;;
11960;SDS011;6040;49.358;11.140;2023-04-24T08:14:11;1.50;;;1.40;;
11960;SDS011;6040;49.358;11.140;2023-04-24T08:16:41;1.83;;;1.50;;
11960;SDS011;6040;49.358;11.140;2023-04-24T08:19:08;2.87;;;1.60;;
11960;SDS011;6040;49.358;11.140;2023-04-24T08:21:34;3.57;;;1.70;;
11960;SDS011;6040;49.358;11.140;2023-04-24T08:24:01;3.10;;;1.70;;
11960;SDS011;6040;49.358;11.140;2023-04-24T08:26:30;1.90;;;1.70;;
11960;SDS011;6040;49.358;11.140;2023-04-24T08:28:57;1.80;;;1.70;;
11960;SDS011;6040;49.358;11.140;2023-04-24T08:31:23;1.80;;;1.70;;
11960;SDS011;6040;49.358;11.140;2023-04-24T08:33:52;3.33;;;1.83;;
11960;SDS011;6040;49.358;11.140;2023-04-24T08:36:19;3.47;;;1.90;;
11960;SDS011;6040;49.358;11.140;2023-04-24T08:38:46;2.03;;;1.80;;
11960;SDS011;6040;49.358;11.140;2023-04-24T08:41:13;2.40;;;1.80;;
11960;SDS011;6040;49.358;11.140;2023-04-24T08:43:40;3.10;;;1.90;;
11960;SDS011;6040;49.358;11.140;2023-04-24T08:46:08;3.07;;;2.03;;
11960;SDS011;6040;49.358;11.140;2023-04-24T08:48:35;1.90;;;1.80;;
11960;SDS011;6040;49.358;11.140;2023-04-24T08:51:04;1.87;;;1.67;;
11960;SDS011;6040;49.358;11.140;2023-04-24T08:53:34;2.47;;;1.83;;
11960;SDS011;6040;49.358;11.140;2023-04-24T08:56:02;2.10;;;1.90;;
11960;SDS011;6040;49.358;11.140;2023-04-24T08:58:29;2.17;;;1.93;;
11960;SDS011;6040;49.358;11.140;2023-04-24T09:00:57;2.43;;;2.07;;
11960;SDS011;6040;49.358;11.140;2023-04-24T09:03:25;3.03;;;2.00;;
11960;SDS011;6040;49.358;11.140;2023-04-24T09:05:54;1.73;;;1.63;;
11960;SDS011;6040;49.358;11.140;2023-04-24T09:08:25;1.90;;;1.80;;
11960;SDS011;6040;49.358;11.140;2023-04-24T09:10:52;1.70;;;1.60;;
11960;SDS011;6040;49.358;11.140;2023-04-24T09:13:19;1.90;;;1.70;;
11960;SDS011;6040;49.358;11.140;2023-04-24T09:15:46;2.43;;;1.80;;
11960;SDS011;6040;49.358;11.140;2023-04-24T09:18:13;2.30;;;1.97;;
11960;SDS011;6040;49.358;11.140;2023-04-24T09:20:59;1.90;;;1.80;;
11960;SDS011;6040;49.358;11.140;2023-04-24T09:23:29;5.50;;;1.83;;
11960;SDS011;6040;49.358;11.140;2023-04-24T09:25:57;1.77;;;1.50;;
11960;SDS011;6040;49.358;11.140;2023-04-24T09:28:25;2.63;;;1.60;;
11960;SDS011;6040;49.358;11.140;2023-04-24T09:31:06;2.93;;;1.77;;
11960;SDS011;6040;49.358;11.140;2023-04-24T09:33:34;2.00;;;1.70;;
11960;SDS011;6040;49.358;11.140;2023-04-24T09:36:01;2.13;;;1.60;;
11960;SDS011;6040;49.358;11.140;2023-04-24T09:38:33;1.80;;;1.70;;
11960;SDS011;6040;49.358;11.140;2023-04-24T09:41:01;1.60;;;1.50;;
11960;SDS011;6040;49.358;11.140;2023-04-24T09:43:30;2.03;;;1.70;;
11960;SDS011;6040;49.358;11.140;2023-04-24T09:45:58;5.00;;;2.37;;
11960;SDS011;6040;49.358;11.140;2023-04-24T09:48:32;3.57;;;1.87;;
11960;SDS011;6040;49.358;11.140;2023-04-24T09:51:00;1.70;;;1.50;;
11960;SDS011;6040;49.358;11.140;2023-04-24T09:53:29;2.23;;;1.57;;
11960;SDS011;6040;49.358;11.140;2023-04-24T09:55:58;3.43;;;1.30;;
11960;SDS011;6040;49.358;11.140;2023-04-24T09:58:29;2.17;;;1.83;;
11960;SDS011;6040;49.358;11.140;2023-04-24T10:00:56;2.07;;;1.60;;
11960;SDS011;6040;49.358;11.140;2023-04-24T10:03:23;1.60;;;1.50;;
11960;SDS011;6040;49.358;11.140;2023-04-24T10:05:52;3.27;;;1.60;;
11960;SDS011;6040;49.358;11.140;2023-04-24T10:08:20;3.23;;;1.50;;
11960;SDS011;6040;49.358;11.140;2023-04-24T10:10:47;1.93;;;1.73;;
11960;SDS011;6040;49.358;11.140;2023-04-24T10:13:16;1.40;;;1.30;;
11960;SDS011;6040;49.358;11.140;2023-04-24T10:15:42;1.70;;;1.40;;
11960;SDS011;6040;49.358;11.140;2023-04-24T10:18:10;1.47;;;1.30;;
11960;SDS011;6040;49.358;11.140;2023-04-24T10:20:38;1.77;;;1.50;;
11960;SDS011;6040;49.358;11.140;2023-04-24T10:23:06;1.30;;;1.30;;
11960;SDS011;6040;49.358;11.140;2023-04-24T10:25:33;1.90;;;1.50;;
11960;SDS011;6040;49.358;11.140;2023-04-24T10:28:02;1.53;;;1.43;;
11960;SDS011;6040;49.358;11.140;2023-04-24T10:30:32;1.30;;;1.20;;
11960;SDS011;6040;49.358;11.140;2023-04-24T10:33:01;3.33;;;1.40;;
11960;SDS011;6040;49.358;11.140;2023-04-24T10:35:31;2.50;;;1.50;;
11960;SDS011;6040;49.358;11.140;2023-04-24T10:38:01;1.40;;;1.30;;
11960;SDS011;6040;49.358;11.140;2023-04-24T10:40:31;1.40;;;1.30;;
11960;SDS011;6040;49.358;11.140;2023-04-24T10:43:02;1.40;;;1.30;;
11960;SDS011;6040;49.358;11.140;2023-04-24T10:45:32;1.13;;;1.10;;
11960;SDS011;6040;49.358;11.140;2023-04-24T10:48:00;1.60;;;1.20;;
11960;SDS011;6040;49.358;11.140;2023-04-24T10:50:28;2.20;;;1.40;;
11960;SDS011;6040;49.358;11.140;2023-04-24T10:53:12;1.60;;;1.40;;
11960;SDS011;6040;49.358;11.140;2023-04-24T10:55:44;2.60;;;1.30;;
11960;SDS011;6040;49.358;11.140;2023-04-24T10:58:13;1.30;;;1.20;;
11960;SDS011;6040;49.358;11.140;2023-04-24T11:00:43;1.20;;;1.10;;
11960;SDS011;6040;49.358;11.140;2023-04-24T11:03:23;1.00;;;1.00;;
11960;SDS011;6040;49.358;11.140;2023-04-24T11:05:57;4.27;;;1.00;;
11960;SDS011;6040;49.358;11.140;2023-04-24T11:08:26;1.70;;;1.30;;
11960;SDS011;6040;49.358;11.140;2023-04-24T11:10:58;2.43;;;1.40;;
11960;SDS011;6040;49.358;11.140;2023-04-24T11:13:29;1.47;;;1.37;;
11960;SDS011;6040;49.358;11.140;2023-04-24T11:16:33;1.10;;;1.10;;
11960;SDS011;6040;49.358;11.140;2023-04-24T11:19:01;1.30;;;1.20;;
11960;SDS011;6040;49.358;11.140;2023-04-24T11:21:38;1.00;;;0.90;;
11960;SDS011;6040;49.358;11.140;2023-04-24T11:24:26;2.03;;;1.17;;
11960;SDS011;6040;49.358;11.140;2023-04-24T11:26:58;1.27;;;1.13;;
11960;SDS011;6040;49.358;11.140;2023-04-24T11:29:39;2.40;;;1.17;;
11960;SDS011;6040;49.358;11.140;2023-04-24T11:32:25;1.23;;;1.13;;
11960;SDS011;6040;49.358;11.140;2023-04-24T11:34:53;1.20;;;1.10;;
11960;SDS011;6040;49.358;11.140;2023-04-24T11:37:21;1.30;;;1.10;;
11960;SDS011;6040;49.358;11.140;2023-04-24T11:39:53;1.77;;;1.30;;
11960;SDS011;6040;49.358;11.140;2023-04-24T11:42:21;1.57;;;1.00;;
11960;SDS011;6040;49.358;11.140;2023-04-24T11:44:49;1.00;;;1.00;;
11960;SDS011;6040;49.358;11.140;2023-04-24T11:47:16;1.07;;;1.07;;
11960;SDS011;6040;49.358;11.140;2023-04-24T11:49:44;1.20;;;1.10;;
11960;SDS011;6040;49.358;11.140;2023-04-24T11:52:11;1.40;;;1.30;;
11960;SDS011;6040;49.358;11.140;2023-04-24T11:54:46;1.13;;;1.07;;
11960;SDS011;6040;49.358;11.140;2023-04-24T11:57:14;1.40;;;1.30;;
11960;SDS011;6040;49.358;11.140;2023-04-24T11:59:41;1.27;;;1.20;;
11960;SDS011;6040;49.358;11.140;2023-04-24T12:02:08;1.57;;;1.47;;
11960;SDS011;6040;49.358;11.140;2023-04-24T12:04:38;1.60;;;1.40;;
11960;SDS011;6040;49.358;11.140;2023-04-24T12:07:08;2.60;;;1.60;;
11960;SDS011;6040;49.358;11.140;2023-04-24T12:09:41;2.30;;;1.50;;
11960;SDS011;6040;49.358;11.140;2023-04-24T12:12:08;1.70;;;1.50;;
11960;SDS011;6040;49.358;11.140;2023-04-24T12:14:41;1.60;;;1.50;;
11960;SDS011;6040;49.358;11.140;2023-04-24T12:17:13;2.17;;;1.60;;
11960;SDS011;6040;49.358;11.140;2023-04-24T12:19:44;1.40;;;1.30;;
11960;SDS011;6040;49.358;11.140;2023-04-24T12:22:13;1.40;;;1.40;;
11960;SDS011;6040;49.358;11.140;2023-04-24T12:24:56;2.23;;;1.50;;
11960;SDS011;6040;49.358;11.140;2023-04-24T12:27:25;3.30;;;1.30;;
11960;SDS011;6040;49.358;11.140;2023-04-24T12:29:52;1.50;;;1.40;;
11960;SDS011;6040;49.358;11.140;2023-04-24T12:32:20;3.23;;;1.40;;
11960;SDS011;6040;49.358;11.140;2023-04-24T12:34:47;2.47;;;1.60;;
11960;SDS011;6040;49.358;11.140;2023-04-24T12:37:17;1.40;;;1.30;;
11960;SDS011;6040;49.358;11.140;2023-04-24T12:39:44;1.50;;;1.40;;
11960;SDS011;6040;49.358;11.140;2023-04-24T12:42:25;1.80;;;1.40;;
11960;SDS011;6040;49.358;11.140;2023-04-24T12:44:55;1.70;;;1.30;;
11960;SDS011;6040;49.358;11.140;2023-04-24T12:47:23;2.30;;;1.30;;
11960;SDS011;6040;49.358;11.140;2023-04-24T12:49:50;1.10;;;1.10;;
11960;SDS011;6040;49.358;11.140;2023-04-24T12:52:19;1.47;;;1.23;;
11960;SDS011;6040;49.358;11.140;2023-04-24T12:54:46;1.30;;;1.20;;
11960;SDS011;6040;49.358;11.140;2023-04-24T12:57:13;2.43;;;1.30;;
11960;SDS011;6040;49.358;11.140;2023-04-24T12:59:40;1.70;;;1.10;;
11960;SDS011;6040;49.358;11.140;2023-04-24T13:02:07;1.50;;;1.40;;
11960;SDS011;6040;49.358;11.140;2023-04-24T13:04:35;1.30;;;1.20;;
11960;SDS011;6040;49.358;11.140;2023-04-24T13:07:01;1.33;;;1.23;;
11960;SDS011;6040;49.358;11.140;2023-04-24T13:09:30;1.20;;;1.20;;
11960;SDS011;6040;49.358;11.140;2023-04-24T13:11:58;1.30;;;1.20;;
11960;SDS011;6040;49.358;11.140;2023-04-24T13:14:26;2.13;;;1.30;;
11960;SDS011;6040;49.358;11.140;2023-04-24T13:16:52;1.57;;;1.47;;
11960;SDS011;6040;49.358;11.140;2023-04-24T13:19:19;2.33;;;1.67;;
11960;SDS011;6040;49.358;11.140;2023-04-24T13:21:46;2.40;;;1.67;;
11960;SDS011;6040;49.358;11.140;2023-04-24T13:24:13;1.73;;;1.57;;
11960;SDS011;6040;49.358;11.140;2023-04-24T13:26:42;1.97;;;1.63;;
11960;SDS011;6040;49.358;11.140;2023-04-24T13:29:09;1.80;;;1.63;;
11960;SDS011;6040;49.358;11.140;2023-04-24T13:31:36;1.50;;;1.40;;
11960;SDS011;6040;49.358;11.140;2023-04-24T13:34:03;1.40;;;1.30;;
11960;SDS011;6040;49.358;11.140;2023-04-24T13:36:29;1.57;;;1.47;;
11960;SDS011;6040;49.358;11.140;2023-04-24T13:38:57;1.93;;;1.50;;
11960;SDS011;6040;49.358;11.140;2023-04-24T13:41:24;1.37;;;1.27;;
11960;SDS011;6040;49.358;11.140;2023-04-24T13:43:52;1.80;;;1.50;;
11960;SDS011;6040;49.358;11.140;2023-04-24T13:46:19;2.83;;;1.70;;
11960;SDS011;6040;49.358;11.140;2023-04-24T13:48:46;2.80;;;1.87;;
11960;SDS011;6040;49.358;11.140;2023-04-24T13:51:13;2.03;;;1.83;;
11960;SDS011;6040;49.358;11.140;2023-04-24T13:53:40;1.93;;;1.83;;
11960;SDS011;6040;49.358;11.140;2023-04-24T13:56:07;2.77;;;1.90;;
11960;SDS011;6040;49.358;11.140;2023-04-24T13:58:34;2.97;;;2.00;;
11960;SDS011;6040;49.358;11.140;2023-04-24T14:01:03;5.27;;;1.80;;
11960;SDS011;6040;49.358;11.140;2023-04-24T14:03:30;4.17;;;2.27;;
11960;SDS011;6040;49.358;11.140;2023-04-24T14:05:57;2.97;;;2.27;;
11960;SDS011;6040;49.358;11.140;2023-04-24T14:08:24;4.67;;;2.20;;
11960;SDS011;6040;49.358;11.140;2023-04-24T14:10:51;2.77;;;2.20;;
11960;SDS011;6040;49.358;11.140;2023-04-24T14:13:18;2.43;;;2.03;;
11960;SDS011;6040;49.358;11.140;2023-04-24T14:15:45;2.47;;;2.27;;
11960;SDS011;6040;49.358;11.140;2023-04-24T14:18:13;2.70;;;2.23;;
11960;SDS011;6040;49.358;11.140;2023-04-24T14:20:40;2.37;;;2.17;;
11960;SDS011;6040;49.358;11.140;2023-04-24T14:23:07;3.37;;;2.50;;
11960;SDS011;6040;49.358;11.140;2023-04-24T14:25:34;2.20;;;2.00;;
11960;SDS011;6040;49.358;11.140;2023-04-24T14:28:01;2.77;;;2.00;;
11960;SDS011;6040;49.358;11.140;2023-04-24T14:30:27;2.60;;;1.87;;
11960;SDS011;6040;49.358;11.140;2023-04-24T14:32:54;2.20;;;1.87;;
11960;SDS011;6040;49.358;11.140;2023-04-24T14:35:22;2.80;;;1.57;;
11960;SDS011;6040;49.358;11.140;2023-04-24T14:37:50;1.53;;;1.43;;
11960;SDS011;6040;49.358;11.140;2023-04-24T14:40:17;1.67;;;1.53;;
11960;SDS011;6040;49.358;11.140;2023-04-24T14:42:44;2.57;;;1.60;;
11960;SDS011;6040;49.358;11.140;2023-04-24T14:45:11;1.83;;;1.70;;
11960;SDS011;6040;49.358;11.140;2023-04-24T14:47:38;1.77;;;1.60;;
11960;SDS011;6040;49.358;11.140;2023-04-24T14:50:05;1.97;;;1.80;;
11960;SDS011;6040;49.358;11.140;2023-04-24T14:52:35;2.40;;;1.73;;